Time,TemperatureF,DewpointF,PressureIn,WindDirection,WindDirectionDegrees,WindSpeedMPH,WindSpeedGustMPH,Humidity,HourlyPrecipIn,Conditions,Clouds,dailyrainin,SoftwareType,DateUTC
2013-07-01 00:11:00,68.0,66.5,29.63,North,0,1.1,-999.0,95,-99.99,,,0.00,Acu-Link.com,2013-07-01 04:11:00,
2013-07-01 00:26:00,68.0,66.5,29.64,North,0,0.0,-999.0,95,-99.99,,,0.00,Acu-Link.com,2013-07-01 04:26:00,
2013-07-01 00:41:00,68.0,66.5,29.64,North,0,0.0,-999.0,95,-99.99,,,0.00,Acu-Link.com,2013-07-01 04:41:00,
2013-07-01 00:56:00,68.0,66.5,29.64,North,0,0.0,-999.0,95,-99.99,,,0.00,Acu-Link.com,2013-07-01 04:56:00,
2013-07-01 01:11:00,68.0,66.5,29.64,North,0,0.0,-999.0,95,-99.99,,,0.00,Acu-Link.com,2013-07-01 05:11:00,
2013-07-01 01:27:00,68.0,66.5,29.64,North,0,0.0,-999.0,95,-99.99,,,0.00,Acu-Link.com,2013-07-01 05:27:00,
2013-07-01 01:42:00,66.2,64.7,29.64,North,0,0.0,-999.0,95,-99.99,,,0.00,Acu-Link.com,2013-07-01 05:42:00,
2013-07-01 01:57:00,66.2,64.7,29.64,North,0,1.6,-999.0,95,-99.99,,,0.00,Acu-Link.com,2013-07-01 05:57:00,
2013-07-01 02:13:00,68.0,66.5,29.63,North,0,0.0,-999.0,95,-99.99,,,0.00,Acu-Link.com,2013-07-01 06:13:00,
2013-07-01 02:28:00,68.0,66.5,29.63,North,0,0.0,-999.0,95,-99.99,,,0.00,Acu-Link.com,2013-07-01 06:28:00,
2013-07-01 02:43:00,68.0,66.5,29.63,North,0,0.0,-999.0,95,-99.99,,,0.00,Acu-Link.com,2013-07-01 06:43:00,
2013-07-01 02:59:00,68.0,66.5,29.63,North,0,0.0,-999.0,95,-99.99,,,0.00,Acu-Link.com,2013-07-01 06:59:00,
2013-07-01 03:14:00,68.0,66.8,29.62,NNE,22,1.6,-999.0,96,-99.99,,,0.00,Acu-Link.com,2013-07-01 07:14:00,
2013-07-01 03:29:00,68.0,66.8,29.62,North,0,0.0,-999.0,96,-99.99,,,0.01,Acu-Link.com,2013-07-01 07:29:00,
2013-07-01 03:44:00,68.0,66.8,29.62,North,0,0.0,-999.0,96,-99.99,,,0.02,Acu-Link.com,2013-07-01 07:44:00,
2013-07-01 04:00:00,68.0,66.8,29.63,North,0,0.0,-999.0,96,-99.99,,,0.02,Acu-Link.com,2013-07-01 08:00:00,
2013-07-01 04:16:00,68.0,66.8,29.63,North,0,0.0,-999.0,96,-99.99,,,0.04,Acu-Link.com,2013-07-01 08:16:00,
2013-07-01 04:31:00,68.0,66.8,29.63,North,0,0.0,-999.0,96,-99.99,,,0.04,Acu-Link.com,2013-07-01 08:31:00,
2013-07-01 04:46:00,68.0,66.8,29.63,North,0,0.0,-999.0,96,-99.99,,,0.04,Acu-Link.com,2013-07-01 08:46:00,
2013-07-01 05:01:00,68.0,66.8,29.62,North,0,1.1,-999.0,96,-99.99,,,0.08,Acu-Link.com,2013-07-01 09:01:00,
2013-07-01 05:16:00,68.0,66.8,29.63,NNE,22,1.6,-999.0,96,-99.99,,,0.11,Acu-Link.com,2013-07-01 09:16:00,
2013-07-01 05:32:00,68.0,66.8,29.64,North,0,1.1,-999.0,96,-99.99,,,0.13,Acu-Link.com,2013-07-01 09:32:00,
2013-07-01 05:47:00,68.0,66.8,29.63,North,0,1.6,-999.0,96,-99.99,,,0.13,Acu-Link.com,2013-07-01 09:47:00,
2013-07-01 06:02:00,68.0,66.8,29.64,NNW,337,1.1,-999.0,96,-99.99,,,0.13,Acu-Link.com,2013-07-01 10:02:00,
2013-07-01 06:17:00,68.0,66.8,29.65,North,0,0.0,-999.0,96,-99.99,,,0.13,Acu-Link.com,2013-07-01 10:17:00,
2013-07-01 06:33:00,68.0,66.8,29.65,NNW,337,1.6,-999.0,96,-99.99,,,0.13,Acu-Link.com,2013-07-01 10:33:00,
2013-07-01 06:48:00,69.8,68.6,29.67,East,90,2.0,-999.0,96,-99.99,,,0.13,Acu-Link.com,2013-07-01 10:48:00,
2013-07-01 07:03:00,69.8,68.6,29.67,North,0,0.0,-999.0,96,-99.99,,,0.13,Acu-Link.com,2013-07-01 11:03:00,
2013-07-01 07:18:00,69.8,68.6,29.66,SSE,157,1.6,-999.0,96,-99.99,,,0.13,Acu-Link.com,2013-07-01 11:18:00,
2013-07-01 07:34:00,68.0,66.8,29.67,North,0,1.6,-999.0,96,-99.99,,,0.13,Acu-Link.com,2013-07-01 11:34:00,
2013-07-01 07:49:00,68.0,66.8,29.66,North,0,1.6,-999.0,96,-99.99,,,0.13,Acu-Link.com,2013-07-01 11:49:00,
2013-07-01 08:04:00,69.8,68.0,29.67,NE,45,1.1,-999.0,94,-99.99,,,0.13,Acu-Link.com,2013-07-01 12:04:00,
2013-07-01 08:20:00,71.6,69.1,29.67,North,0,0.0,-999.0,92,-99.99,,,0.13,Acu-Link.com,2013-07-01 12:20:00,
2013-07-01 08:35:00,77.0,71.4,29.67,SE,135,2.7,-999.0,83,-99.99,,,0.13,Acu-Link.com,2013-07-01 12:35:00,
2013-07-01 08:50:00,77.0,71.1,29.67,South,180,2.7,-999.0,82,-99.99,,,0.13,Acu-Link.com,2013-07-01 12:50:00,
2013-07-01 09:05:00,78.8,71.3,29.68,SSE,157,2.0,-999.0,78,-99.99,,,0.13,Acu-Link.com,2013-07-01 13:05:00,
2013-07-01 09:21:00,78.8,70.6,29.69,ESE,112,2.0,-999.0,76,-99.99,,,0.13,Acu-Link.com,2013-07-01 13:21:00,
2013-07-01 09:36:00,77.0,69.6,29.69,South,180,2.7,-999.0,78,-99.99,,,0.13,Acu-Link.com,2013-07-01 13:36:00,
2013-07-01 09:51:00,80.6,71.1,29.69,ESE,112,2.7,-999.0,73,-99.99,,,0.13,Acu-Link.com,2013-07-01 13:51:00,
2013-07-01 10:06:00,78.8,70.2,29.70,South,180,4.0,-999.0,75,-99.99,,,0.13,Acu-Link.com,2013-07-01 14:06:00,
2013-07-01 10:21:00,80.6,70.7,29.70,South,180,3.1,-999.0,72,-99.99,,,0.13,Acu-Link.com,2013-07-01 14:21:00,
2013-07-01 10:36:00,77.0,69.2,29.70,ESE,112,3.1,-999.0,77,-99.99,,,0.13,Acu-Link.com,2013-07-01 14:36:00,
2013-07-01 10:52:00,78.8,71.3,29.70,South,180,2.0,-999.0,78,-99.99,,,0.13,Acu-Link.com,2013-07-01 14:52:00,
2013-07-01 11:07:00,78.8,70.6,29.70,NNE,22,1.6,-999.0,76,-99.99,,,0.13,Acu-Link.com,2013-07-01 15:07:00,
2013-07-01 11:22:00,78.8,71.3,29.70,NNW,337,0.0,-999.0,78,-99.99,,,0.13,Acu-Link.com,2013-07-01 15:22:00,
2013-07-01 11:38:00,78.8,71.3,29.70,SE,135,1.6,-999.0,78,-99.99,,,0.13,Acu-Link.com,2013-07-01 15:38:00,
2013-07-01 11:53:00,78.8,70.2,29.70,ESE,112,2.7,-999.0,75,-99.99,,,0.13,Acu-Link.com,2013-07-01 15:53:00,
2013-07-01 12:08:00,82.4,72.0,29.70,South,180,4.0,-999.0,71,-99.99,,,0.13,Acu-Link.com,2013-07-01 16:08:00,
2013-07-01 12:23:00,82.4,70.3,29.70,East,90,2.7,-999.0,67,-99.99,,,0.13,Acu-Link.com,2013-07-01 16:23:00,
2013-07-01 12:39:00,86.0,71.9,29.70,SSE,157,2.0,-999.0,63,-99.99,,,0.13,Acu-Link.com,2013-07-01 16:39:00,
2013-07-01 12:54:00,84.2,72.0,29.70,ESE,112,1.6,-999.0,67,-99.99,,,0.13,Acu-Link.com,2013-07-01 16:54:00,
2013-07-01 13:09:00,86.0,72.4,29.70,WSW,247,3.1,-999.0,64,-99.99,,,0.13,Acu-Link.com,2013-07-01 17:09:00,
2013-07-01 13:24:00,86.0,71.0,29.70,South,180,3.1,-999.0,61,-99.99,,,0.13,Acu-Link.com,2013-07-01 17:24:00,
2013-07-01 13:40:00,86.0,70.0,29.70,South,180,5.1,-999.0,59,-99.99,,,0.13,Acu-Link.com,2013-07-01 17:40:00,
2013-07-01 13:55:00,87.8,72.2,29.69,NW,315,2.7,-999.0,60,-99.99,,,0.13,Acu-Link.com,2013-07-01 17:55:00,
2013-07-01 14:10:00,89.6,71.8,29.69,NW,315,1.6,-999.0,56,-99.99,,,0.13,Acu-Link.com,2013-07-01 18:10:00,
2013-07-01 14:25:00,87.8,71.1,29.69,WNW,292,1.6,-999.0,58,-99.99,,,0.13,Acu-Link.com,2013-07-01 18:25:00,
2013-07-01 14:40:00,89.6,71.8,29.68,South,180,2.7,-999.0,56,-99.99,,,0.13,Acu-Link.com,2013-07-01 18:40:00,
2013-07-01 14:55:00,91.4,71.3,29.68,North,0,2.0,-999.0,52,-99.99,,,0.13,Acu-Link.com,2013-07-01 18:55:00,
2013-07-01 15:11:00,89.6,71.3,29.68,NNW,337,1.6,-999.0,55,-99.99,,,0.13,Acu-Link.com,2013-07-01 19:11:00,
2013-07-01 15:26:00,86.0,71.0,29.69,West,270,1.1,-999.0,61,-99.99,,,0.13,Acu-Link.com,2013-07-01 19:26:00,
2013-07-01 15:41:00,86.0,72.4,29.68,North,0,2.7,-999.0,64,-99.99,,,0.13,Acu-Link.com,2013-07-01 19:41:00,
2013-07-01 15:56:00,84.2,71.1,29.68,East,90,1.6,-999.0,65,-99.99,,,0.13,Acu-Link.com,2013-07-01 19:56:00,
2013-07-01 16:12:00,86.0,72.8,29.68,West,270,3.6,-999.0,65,-99.99,,,0.13,Acu-Link.com,2013-07-01 20:12:00,
2013-07-01 16:27:00,86.0,71.4,29.68,WNW,292,3.1,-999.0,62,-99.99,,,0.13,Acu-Link.com,2013-07-01 20:27:00,
2013-07-01 16:42:00,87.8,72.6,29.68,South,180,1.6,-999.0,61,-99.99,,,0.13,Acu-Link.com,2013-07-01 20:42:00,
2013-07-01 16:57:00,89.6,72.8,29.68,WNW,292,2.0,-999.0,58,-99.99,,,0.13,Acu-Link.com,2013-07-01 20:57:00,
2013-07-01 17:13:00,86.0,71.9,29.68,West,270,1.6,-999.0,63,-99.99,,,0.13,Acu-Link.com,2013-07-01 21:13:00,
2013-07-01 17:28:00,86.0,72.4,29.69,NNE,22,2.0,-999.0,64,-99.99,,,0.13,Acu-Link.com,2013-07-01 21:28:00,
2013-07-01 17:43:00,82.4,70.3,29.69,East,90,1.1,-999.0,67,-99.99,,,0.13,Acu-Link.com,2013-07-01 21:43:00,
2013-07-01 17:59:00,82.4,71.2,29.68,ESE,112,2.7,-999.0,69,-99.99,,,0.13,Acu-Link.com,2013-07-01 21:59:00,
2013-07-01 18:14:00,82.4,71.2,29.68,NNE,22,1.6,-999.0,69,-99.99,,,0.13,Acu-Link.com,2013-07-01 22:14:00,
2013-07-01 18:29:00,82.4,71.2,29.69,NW,315,1.6,-999.0,69,-99.99,,,0.13,Acu-Link.com,2013-07-01 22:29:00,
2013-07-01 18:45:00,82.4,71.6,29.69,West,270,3.6,-999.0,70,-99.99,,,0.13,Acu-Link.com,2013-07-01 22:45:00,
2013-07-01 19:00:00,80.6,70.7,29.69,West,270,1.1,-999.0,72,-99.99,,,0.13,Acu-Link.com,2013-07-01 23:00:00,
2013-07-01 19:15:00,80.6,71.1,29.69,East,90,3.1,-999.0,73,-99.99,,,0.13,Acu-Link.com,2013-07-01 23:15:00,
2013-07-01 19:31:00,80.6,71.1,29.70,ESE,112,4.7,-999.0,73,-99.99,,,0.13,Acu-Link.com,2013-07-01 23:31:00,
2013-07-01 19:46:00,78.8,70.2,29.70,East,90,2.0,-999.0,75,-99.99,,,0.13,Acu-Link.com,2013-07-01 23:46:00,
2013-07-01 20:01:00,78.8,71.0,29.70,ESE,112,1.6,-999.0,77,-99.99,,,0.13,Acu-Link.com,2013-07-02 00:01:00,
2013-07-01 20:16:00,78.8,71.3,29.70,West,270,1.6,-999.0,78,-99.99,,,0.13,Acu-Link.com,2013-07-02 00:16:00,
2013-07-01 20:32:00,77.0,70.3,29.70,SE,135,3.1,-999.0,80,-99.99,,,0.13,Acu-Link.com,2013-07-02 00:32:00,
2013-07-01 20:47:00,77.0,71.1,29.70,WNW,292,1.6,-999.0,82,-99.99,,,0.13,Acu-Link.com,2013-07-02 00:47:00,
2013-07-01 21:02:00,77.0,71.4,29.71,North,0,1.6,-999.0,83,-99.99,,,0.13,Acu-Link.com,2013-07-02 01:02:00,
2013-07-01 21:18:00,75.2,70.0,29.71,NE,45,1.6,-999.0,84,-99.99,,,0.13,Acu-Link.com,2013-07-02 01:18:00,
2013-07-01 21:33:00,75.2,70.0,29.72,SSE,157,1.1,-999.0,84,-99.99,,,0.13,Acu-Link.com,2013-07-02 01:33:00,
2013-07-01 21:48:00,75.2,70.4,29.75,East,90,1.6,-999.0,85,-99.99,,,0.13,Acu-Link.com,2013-07-02 01:48:00,
2013-07-01 22:03:00,75.2,70.4,29.75,ENE,67,1.6,-999.0,85,-99.99,,,0.13,Acu-Link.com,2013-07-02 02:03:00,
2013-07-01 22:19:00,75.2,70.4,29.75,East,90,1.6,-999.0,85,-99.99,,,0.13,Acu-Link.com,2013-07-02 02:19:00,
2013-07-01 22:34:00,75.2,70.4,29.74,West,270,1.1,-999.0,85,-99.99,,,0.13,Acu-Link.com,2013-07-02 02:34:00,
2013-07-01 22:49:00,75.2,70.4,29.75,East,90,3.1,-999.0,85,-99.99,,,0.13,Acu-Link.com,2013-07-02 02:49:00,
2013-07-01 23:04:00,75.2,70.4,29.76,SW,225,2.7,-999.0,85,-99.99,,,0.13,Acu-Link.com,2013-07-02 03:04:00,
2013-07-01 23:20:00,73.4,68.6,29.76,West,270,7.2,-999.0,85,-99.99,,,0.13,Acu-Link.com,2013-07-02 03:20:00,
2013-07-01 23:35:00,73.4,68.9,29.76,ESE,112,1.6,-999.0,86,-99.99,,,0.13,Acu-Link.com,2013-07-02 03:35:00,
2013-07-01 23:50:00,73.4,68.9,29.76,West,270,4.0,-999.0,86,-99.99,,,0.13,Acu-Link.com,2013-07-02 03:50:00,